createdAt,value
2018-05-12T00:00:55.785Z,16.11
2018-05-12T00:03:24.206Z,16.05
2018-05-12T00:05:52.599Z,16.01
2018-05-12T00:08:21.626Z,15.88
2018-05-12T00:10:49.885Z,15.88
2018-05-12T00:13:18.189Z,15.83
2018-05-12T00:15:47.230Z,15.75
2018-05-12T00:18:15.482Z,15.71
2018-05-12T00:20:44.515Z,15.67
2018-05-12T00:23:12.802Z,15.74
2018-05-12T00:25:41.056Z,15.76
2018-05-12T00:28:09.331Z,15.69
2018-05-12T00:30:37.629Z,15.67
2018-05-12T00:33:05.886Z,15.59
2018-05-12T00:35:34.149Z,15.51
2018-05-12T00:38:02.440Z,15.48
2018-05-12T00:40:30.688Z,15.45
2018-05-12T00:42:59.095Z,15.39
2018-05-12T00:45:27.331Z,15.30
2018-05-12T00:47:55.586Z,15.32
2018-05-12T00:50:23.883Z,15.22
2018-05-12T00:52:52.138Z,15.16
2018-05-12T00:55:20.384Z,15.04
2018-05-12T00:57:48.718Z,15.05
2018-05-12T01:00:17.002Z,15.07
2018-05-12T01:02:46.017Z,15.01
2018-05-12T01:05:14.304Z,14.96
2018-05-12T01:07:42.552Z,14.90
2018-05-12T01:10:10.814Z,14.80
2018-05-12T01:12:39.885Z,14.76
2018-05-12T01:15:08.140Z,14.60
2018-05-12T01:17:36.464Z,14.69
2018-05-12T01:20:05.512Z,14.57
2018-05-12T01:22:33.765Z,14.52
2018-05-12T01:25:02.017Z,14.58
2018-05-12T01:27:30.284Z,14.68
2018-05-12T01:29:59.304Z,14.66
2018-05-12T01:32:27.651Z,14.57
2018-05-12T01:34:56.704Z,14.34
2018-05-12T01:37:25.732Z,14.02
2018-05-12T01:39:53.995Z,14.27
2018-05-12T01:42:22.274Z,14.14
2018-05-12T01:44:50.536Z,14.06
2018-05-12T01:47:18.781Z,14.19
2018-05-12T01:49:47.056Z,14.21
2018-05-12T01:52:15.314Z,14.33
2018-05-12T01:54:43.572Z,14.39
2018-05-12T01:57:12.609Z,14.42
2018-05-12T01:59:40.868Z,14.41
2018-05-12T02:02:09.114Z,14.34
2018-05-12T02:04:38.151Z,14.44
2018-05-12T02:07:06.398Z,14.38
2018-05-12T02:09:35.417Z,14.38
2018-05-12T02:12:03.716Z,14.33
2018-05-12T02:14:31.976Z,14.48
2018-05-12T02:17:00.224Z,14.52
2018-05-12T02:19:28.494Z,14.57
2018-05-12T02:21:56.754Z,14.61
2018-05-12T02:24:25.017Z,14.56
2018-05-12T02:26:53.326Z,14.46
2018-05-12T02:29:21.658Z,14.59
2018-05-12T02:31:50.684Z,14.59
2018-05-12T02:34:18.986Z,14.53
2018-05-12T02:36:47.285Z,14.64
2018-05-12T02:39:15.577Z,14.58
2018-05-12T02:41:43.850Z,14.61
2018-05-12T02:44:12.110Z,14.31
2018-05-12T02:46:40.385Z,14.11
2018-05-12T02:49:08.686Z,14.33
2018-05-12T02:51:36.930Z,14.31
2018-05-12T02:54:05.190Z,14.28
2018-05-12T02:56:33.495Z,14.34
2018-05-12T02:59:01.826Z,14.28
2018-05-12T03:01:30.101Z,14.13
2018-05-12T03:03:58.382Z,14.10
2018-05-12T03:06:26.695Z,14.21
2018-05-12T03:08:54.962Z,14.15
2018-05-12T03:11:23.225Z,13.92
2018-05-12T03:13:51.478Z,13.84
2018-05-12T03:16:19.731Z,13.81
2018-05-12T03:18:48.001Z,13.75
2018-05-12T03:21:16.268Z,13.84
2018-05-12T03:23:44.521Z,13.81
2018-05-12T03:26:12.790Z,13.79
2018-05-12T03:28:41.079Z,13.82
2018-05-12T03:31:09.365Z,13.89
2018-05-12T03:33:37.630Z,13.78
2018-05-12T03:36:05.889Z,13.80
2018-05-12T03:38:34.172Z,13.72
2018-05-12T03:41:02.473Z,13.51
2018-05-12T03:43:30.724Z,13.53
2018-05-12T03:45:58.992Z,13.45
2018-05-12T03:48:27.272Z,13.48
2018-05-12T03:50:55.546Z,13.46
2018-05-12T03:53:23.793Z,13.42
2018-05-12T03:55:52.070Z,13.24
2018-05-12T03:58:20.340Z,13.28
2018-05-12T04:00:48.609Z,13.42
2018-05-12T04:03:16.913Z,13.48
2018-05-12T04:06:03.451Z,13.55
2018-05-12T04:08:50.182Z,13.50
2018-05-12T04:11:35.966Z,13.40
2018-05-12T04:14:05.022Z,13.40
2018-05-12T04:16:33.331Z,13.31
2018-05-12T04:19:01.594Z,13.26
2018-05-12T04:21:29.869Z,13.23
2018-05-12T04:23:58.160Z,13.36
2018-05-12T04:26:26.414Z,13.43
2018-05-12T04:28:54.695Z,13.32
2018-05-12T04:31:23.080Z,13.32
2018-05-12T04:33:51.476Z,13.24
2018-05-12T04:36:19.721Z,13.41
2018-05-12T04:38:47.977Z,13.43
2018-05-12T04:41:16.989Z,13.41
2018-05-12T04:43:45.278Z,13.42
2018-05-12T04:46:13.538Z,13.54
2018-05-12T04:48:41.840Z,13.67
2018-05-12T04:51:10.095Z,13.75
2018-05-12T04:53:38.357Z,13.83
2018-05-12T04:56:07.392Z,13.94
2018-05-12T04:58:35.661Z,13.93
2018-05-12T05:01:03.953Z,13.87
2018-05-12T05:03:32.212Z,14.04
2018-05-12T05:06:00.501Z,14.16
2018-05-12T05:08:28.765Z,14.23
2018-05-12T05:10:57.074Z,14.32
2018-05-12T05:13:25.375Z,14.37
2018-05-12T05:15:53.617Z,14.40
2018-05-12T05:18:21.867Z,14.52
2018-05-12T05:20:50.141Z,14.61
2018-05-12T05:23:18.397Z,14.76
2018-05-12T05:25:46.694Z,14.89
2018-05-12T05:28:16.089Z,14.94
2018-05-12T05:30:44.420Z,15.06
2018-05-12T05:33:12.667Z,15.14
2018-05-12T05:35:40.944Z,15.29
2018-05-12T05:38:09.220Z,15.43
2018-05-12T05:40:37.482Z,15.54
2018-05-12T05:43:05.745Z,15.57
2018-05-12T05:45:33.997Z,15.59
2018-05-12T05:48:03.015Z,15.68
2018-05-12T05:50:31.286Z,15.66
2018-05-12T05:52:59.536Z,15.63
2018-05-12T05:55:28.578Z,15.76
2018-05-12T05:57:56.896Z,15.86
2018-05-12T06:00:25.145Z,16.05
2018-05-12T06:02:54.161Z,16.14
2018-05-12T06:05:22.425Z,16.10
2018-05-12T06:07:50.677Z,16.14
2018-05-12T06:10:18.933Z,16.24
2018-05-12T06:12:47.193Z,16.36
2018-05-12T06:15:16.305Z,16.48
2018-05-12T06:17:44.548Z,16.56
2018-05-12T06:20:13.578Z,16.75
2018-05-12T06:22:41.825Z,16.93
2018-05-12T06:25:10.843Z,17.07
2018-05-12T06:27:39.112Z,17.11
2018-05-12T06:30:07.361Z,17.08
2018-05-12T06:32:35.609Z,17.32
2018-05-12T06:35:03.885Z,17.50
2018-05-12T06:37:32.208Z,17.48
2018-05-12T06:40:01.228Z,17.66
2018-05-12T06:42:29.489Z,17.82
2018-05-12T06:44:57.754Z,17.63
2018-05-12T06:47:26.768Z,17.82
2018-05-12T06:49:55.034Z,18.06
2018-05-12T06:52:23.291Z,18.29
2018-05-12T06:54:52.307Z,18.47
2018-05-12T06:57:20.579Z,18.69
2018-05-12T06:59:48.827Z,18.74
2018-05-12T07:02:17.849Z,18.85
2018-05-12T07:04:46.119Z,18.58
2018-05-12T07:07:14.381Z,18.58
2018-05-12T07:09:43.396Z,18.88
2018-05-12T07:12:11.661Z,19.08
2018-05-12T07:14:39.953Z,18.88
2018-05-12T07:17:08.213Z,19.00
2018-05-12T07:19:37.253Z,19.22
2018-05-12T07:22:05.503Z,19.23
2018-05-12T07:24:33.765Z,19.43
2018-05-12T07:27:02.841Z,19.46
2018-05-12T07:29:31.944Z,19.25
2018-05-12T07:32:00.124Z,19.36
2018-05-12T07:34:28.392Z,19.48
2018-05-12T07:36:57.414Z,19.55
2018-05-12T07:39:25.707Z,19.73
2018-05-12T07:41:54.698Z,19.94
2018-05-12T07:44:22.953Z,18.98
2018-05-12T07:46:51.237Z,18.87
2018-05-12T07:49:19.506Z,19.10
2018-05-12T07:51:47.756Z,19.57
2018-05-12T07:54:16.774Z,19.81
2018-05-12T07:56:45.041Z,20.06
2018-05-12T07:59:13.305Z,20.10
2018-05-12T08:01:42.321Z,20.11
2018-05-12T08:04:10.597Z,20.19
2018-05-12T08:06:38.868Z,20.19
2018-05-12T08:09:07.129Z,20.34
2018-05-12T08:11:36.184Z,20.18
2018-05-12T08:14:05.208Z,20.43
2018-05-12T08:16:33.454Z,20.73
2018-05-12T08:19:01.731Z,20.84
2018-05-12T08:21:29.977Z,20.98
2018-05-12T08:23:58.229Z,21.09
2018-05-12T08:26:26.504Z,21.14
2018-05-12T08:28:54.781Z,21.23
2018-05-12T08:31:23.029Z,21.18
2018-05-12T08:33:51.352Z,21.26
2018-05-12T08:36:19.597Z,21.55
2018-05-12T08:38:48.625Z,21.51
2018-05-12T08:41:16.897Z,21.92
2018-05-12T08:43:45.153Z,22.11
2018-05-12T08:46:14.177Z,22.18
2018-05-12T08:48:42.452Z,22.24
2018-05-12T08:51:10.745Z,22.37
2018-05-12T08:53:39.006Z,22.46
2018-05-12T08:56:07.277Z,22.21
2018-05-12T08:58:35.536Z,22.01
2018-05-12T09:01:03.784Z,21.99
2018-05-12T09:03:32.833Z,22.02
2018-05-12T09:06:01.076Z,22.51
2018-05-12T09:08:30.125Z,22.81
2018-05-12T09:10:58.390Z,22.49
2018-05-12T09:13:26.651Z,22.64
2018-05-12T09:15:54.896Z,22.56
2018-05-12T09:18:23.938Z,22.90
2018-05-12T09:20:52.190Z,22.93
2018-05-12T09:23:20.481Z,23.22
2018-05-12T09:25:48.772Z,23.54
2018-05-12T09:28:17.020Z,23.63
2018-05-12T09:30:45.276Z,23.65
2018-05-12T09:33:13.556Z,23.77
2018-05-12T09:35:41.830Z,23.72
2018-05-12T09:38:10.080Z,23.50
2018-05-12T09:40:38.356Z,23.48
2018-05-12T09:43:06.639Z,22.95
2018-05-12T09:45:35.669Z,22.95
2018-05-12T09:48:03.937Z,23.13
2018-05-12T09:50:32.186Z,22.74
2018-05-12T09:53:01.220Z,22.89
2018-05-12T09:55:29.492Z,22.99
2018-05-12T09:57:57.752Z,22.96
2018-05-12T10:00:26.005Z,23.31
2018-05-12T10:02:55.049Z,23.68
2018-05-12T10:05:23.300Z,24.02
2018-05-12T10:07:51.552Z,24.12
2018-05-12T10:10:20.613Z,24.25
2018-05-12T10:12:48.953Z,24.68
2018-05-12T10:15:17.121Z,24.94
2018-05-12T10:17:45.386Z,25.10
2018-05-12T10:20:14.402Z,25.23
2018-05-12T10:22:42.653Z,25.07
2018-05-12T10:25:11.685Z,25.20
2018-05-12T10:27:39.944Z,25.46
2018-05-12T10:30:08.201Z,25.49
2018-05-12T10:32:37.236Z,25.51
2018-05-12T10:35:05.493Z,25.48
2018-05-12T10:37:33.744Z,25.47
2018-05-12T10:40:02.870Z,24.41
2018-05-12T10:42:31.142Z,24.96
2018-05-12T10:44:59.396Z,25.36
2018-05-12T10:47:28.589Z,25.26
2018-05-12T10:49:57.634Z,25.86
2018-05-12T10:52:25.989Z,26.26
2018-05-12T10:54:54.266Z,26.41
2018-05-12T10:57:22.529Z,26.20
2018-05-12T10:59:50.782Z,25.83
2018-05-12T11:02:19.841Z,25.85
2018-05-12T11:04:48.100Z,25.42
2018-05-12T11:07:16.358Z,25.52
2018-05-12T11:09:44.739Z,25.69
2018-05-12T11:12:12.888Z,26.03
2018-05-12T11:14:41.940Z,26.40
2018-05-12T11:17:10.210Z,26.45
2018-05-12T11:19:38.464Z,26.65
2018-05-12T11:22:06.712Z,27.21
2018-05-12T11:24:35.752Z,27.16
2018-05-12T11:27:04.061Z,27.60
2018-05-12T11:29:32.379Z,27.21
2018-05-12T11:32:00.645Z,27.56
2018-05-12T11:34:28.898Z,27.20
2018-05-12T11:36:57.233Z,26.95
2018-05-12T11:39:25.537Z,27.39
2018-05-12T11:41:53.747Z,27.46
2018-05-12T11:44:22.863Z,27.56
2018-05-12T11:46:51.138Z,27.78
2018-05-12T11:49:19.393Z,27.84
2018-05-12T11:51:48.418Z,27.40
2018-05-12T11:54:16.681Z,27.39
2018-05-12T11:56:44.940Z,27.55
2018-05-12T11:59:13.969Z,27.70
2018-05-12T12:01:42.302Z,27.86
2018-05-12T12:04:11.322Z,27.72
2018-05-12T12:06:39.618Z,26.93
2018-05-12T12:09:07.932Z,27.12
2018-05-12T12:11:36.188Z,27.37
2018-05-12T12:14:04.533Z,26.65
2018-05-12T12:16:32.873Z,26.80
2018-05-12T12:19:01.052Z,26.92
2018-05-12T12:21:30.098Z,26.59
2018-05-12T12:23:58.362Z,26.64
2018-05-12T12:26:26.616Z,26.39
2018-05-12T12:28:54.873Z,26.42
2018-05-12T12:31:23.905Z,26.62
2018-05-12T12:33:52.203Z,26.56
2018-05-12T12:36:20.454Z,26.56
2018-05-12T12:38:48.728Z,26.63
2018-05-12T12:41:16.981Z,27.10
2018-05-12T12:43:46.095Z,27.28
2018-05-12T12:46:14.373Z,27.60
2018-05-12T12:48:42.632Z,27.53
2018-05-12T12:51:11.729Z,27.51
2018-05-12T12:53:39.997Z,27.68
2018-05-12T12:56:09.110Z,26.56
2018-05-12T12:58:37.370Z,27.27
2018-05-12T13:01:06.484Z,26.81
2018-05-12T13:03:34.773Z,27.19
2018-05-12T13:06:03.037Z,27.49
2018-05-12T13:08:31.334Z,28.08
2018-05-12T13:10:59.640Z,28.29
2018-05-12T13:13:28.000Z,28.29
2018-05-12T13:15:56.315Z,28.27
2018-05-12T13:18:25.661Z,27.89
2018-05-12T13:20:53.917Z,28.24
2018-05-12T13:23:23.023Z,28.61
2018-05-12T13:25:51.268Z,28.78
2018-05-12T13:28:20.389Z,28.86
2018-05-12T13:30:48.658Z,28.27
2018-05-12T13:33:16.913Z,29.25
2018-05-12T13:35:45.194Z,30.14
2018-05-12T13:38:13.454Z,30.46
2018-05-12T13:40:41.708Z,32.31
2018-05-12T13:43:09.966Z,33.12
2018-05-12T13:45:38.277Z,33.51
2018-05-12T13:48:06.496Z,34.60
2018-05-12T13:50:34.749Z,34.97
2018-05-12T13:53:03.869Z,35.33
2018-05-12T13:55:32.124Z,35.86
2018-05-12T13:58:01.249Z,35.53
2018-05-12T14:00:29.525Z,35.81
2018-05-12T14:02:57.772Z,35.21
2018-05-12T14:05:26.784Z,35.45
2018-05-12T14:07:55.057Z,36.41
2018-05-12T14:10:23.344Z,36.62
2018-05-12T14:12:51.591Z,36.54
2018-05-12T14:15:20.661Z,36.29
2018-05-12T14:17:48.994Z,36.18
2018-05-12T14:20:17.267Z,36.97
2018-05-12T14:22:45.541Z,36.92
2018-05-12T14:25:13.801Z,36.66
2018-05-12T14:27:42.821Z,36.96
2018-05-12T14:30:11.192Z,37.17
2018-05-12T14:32:39.441Z,37.52
2018-05-12T14:35:08.452Z,37.16
2018-05-12T14:37:36.718Z,37.38
2018-05-12T14:40:05.764Z,37.83
2018-05-12T14:42:34.025Z,37.17
2018-05-12T14:45:02.388Z,36.17
2018-05-12T14:47:30.642Z,36.93
2018-05-12T14:49:59.663Z,36.93
2018-05-12T14:52:27.926Z,36.81
2018-05-12T14:54:56.178Z,38.19
2018-05-12T14:57:25.184Z,37.90
2018-05-12T14:59:54.293Z,38.24
2018-05-12T15:02:22.624Z,38.79
2018-05-12T15:04:50.825Z,38.70
2018-05-12T15:07:19.864Z,38.28
2018-05-12T15:09:48.226Z,37.90
2018-05-12T15:12:16.521Z,38.14
2018-05-12T15:14:44.835Z,37.04
2018-05-12T15:17:13.024Z,37.16
2018-05-12T15:19:42.051Z,38.06
2018-05-12T15:22:10.313Z,38.39
2018-05-12T15:24:38.566Z,37.49
2018-05-12T15:27:07.690Z,36.79
2018-05-12T15:29:35.968Z,35.95
2018-05-12T15:32:04.250Z,35.45
2018-05-12T15:34:32.517Z,36.15
2018-05-12T15:37:00.789Z,35.76
2018-05-12T15:39:29.175Z,34.76
2018-05-12T15:41:57.453Z,34.70
2018-05-12T15:44:25.721Z,34.60
2018-05-12T15:46:53.973Z,35.38
2018-05-12T15:49:22.287Z,34.45
2018-05-12T15:51:50.564Z,34.03
2018-05-12T15:54:18.805Z,34.56
2018-05-12T15:56:47.923Z,34.66
2018-05-12T15:59:16.197Z,34.72
2018-05-12T16:01:44.492Z,34.66
2018-05-12T16:04:12.756Z,34.60
2018-05-12T16:06:41.038Z,34.36
2018-05-12T16:09:09.308Z,33.64
2018-05-12T16:11:37.576Z,33.43
2018-05-12T16:14:05.852Z,33.11
2018-05-12T16:16:34.104Z,33.03
2018-05-12T16:19:03.151Z,33.17
2018-05-12T16:21:31.416Z,32.95
2018-05-12T16:23:59.685Z,32.80
2018-05-12T16:26:27.944Z,32.70
2018-05-12T16:28:57.062Z,32.16
2018-05-12T16:31:25.368Z,32.50
2018-05-12T16:33:53.613Z,32.67
2018-05-12T16:36:21.873Z,32.65
2018-05-12T16:38:50.123Z,32.71
2018-05-12T16:41:18.383Z,32.63
2018-05-12T16:43:46.718Z,32.34
2018-05-12T16:46:14.964Z,32.60
2018-05-12T16:48:44.081Z,33.05
2018-05-12T16:51:12.443Z,33.16
2018-05-12T16:53:41.361Z,33.26
2018-05-12T16:56:09.603Z,33.22
2018-05-12T16:58:38.636Z,32.92
2018-05-12T17:01:06.886Z,32.78
2018-05-12T17:03:37.146Z,32.85
2018-05-12T17:06:05.502Z,32.58
2018-05-12T17:08:33.776Z,32.75
2018-05-12T17:11:02.024Z,32.71
2018-05-12T17:13:31.054Z,32.46
2018-05-12T17:15:59.304Z,31.84
2018-05-12T17:18:28.413Z,31.44
2018-05-12T17:20:56.681Z,31.37
2018-05-12T17:23:24.948Z,31.14
2018-05-12T17:25:53.969Z,30.51
2018-05-12T17:28:22.249Z,30.74
2018-05-12T17:30:50.534Z,30.77
2018-05-12T17:33:18.801Z,30.72
2018-05-12T17:35:47.163Z,30.66
2018-05-12T17:38:15.413Z,30.49
2018-05-12T17:40:43.730Z,30.27
2018-05-12T17:43:12.100Z,30.01
2018-05-12T17:45:40.357Z,29.71
2018-05-12T17:48:09.369Z,29.31
2018-05-12T17:50:37.634Z,29.12
2018-05-12T17:53:06.740Z,28.87
2018-05-12T17:55:35.054Z,28.63
2018-05-12T17:58:04.108Z,28.41
2018-05-12T18:00:32.372Z,28.15
2018-05-12T18:03:01.388Z,27.91
2018-05-12T18:05:29.663Z,27.56
2018-05-12T18:07:57.910Z,27.06
2018-05-12T18:10:27.031Z,26.46
2018-05-12T18:12:55.309Z,26.02
2018-05-12T18:15:23.560Z,25.72
2018-05-12T18:17:52.585Z,25.32
2018-05-12T18:20:20.851Z,25.18
2018-05-12T18:22:49.865Z,25.06
2018-05-12T18:25:18.116Z,24.97
2018-05-12T18:27:46.385Z,24.78
2018-05-12T18:30:15.493Z,24.48
2018-05-12T18:32:43.771Z,24.16
2018-05-12T18:35:12.788Z,23.86
2018-05-12T18:37:41.061Z,23.80
2018-05-12T18:40:09.327Z,23.59
2018-05-12T18:42:37.590Z,23.32
2018-05-12T18:45:05.833Z,23.10
2018-05-12T18:47:34.145Z,22.90
2018-05-12T18:50:02.417Z,22.65
2018-05-12T18:52:30.668Z,22.41
2018-05-12T18:54:59.694Z,22.23
2018-05-12T18:57:27.953Z,22.05
2018-05-12T18:59:57.053Z,21.78
2018-05-12T19:02:25.234Z,21.69
2018-05-12T19:04:53.618Z,21.52
2018-05-12T19:07:21.889Z,21.38
2018-05-12T19:09:50.149Z,21.24
2018-05-12T19:12:19.177Z,21.08
2018-05-12T19:14:47.441Z,20.93
2018-05-12T19:17:15.702Z,20.89
2018-05-12T19:19:44.814Z,20.86
2018-05-12T19:22:13.064Z,20.62
2018-05-12T19:24:42.077Z,20.54
2018-05-12T19:27:10.341Z,20.36
2018-05-12T19:29:39.392Z,20.24
2018-05-12T19:32:07.654Z,20.10
2018-05-12T19:34:36.028Z,20.11
2018-05-12T19:37:04.334Z,20.00
2018-05-12T19:39:32.701Z,19.95
2018-05-12T19:42:01.001Z,19.91
2018-05-12T19:44:29.296Z,19.89
2018-05-12T19:46:58.308Z,19.74
2018-05-12T19:49:26.679Z,19.70
2018-05-12T19:51:55.142Z,19.71
2018-05-12T19:54:23.804Z,19.64
2018-05-12T19:56:53.276Z,19.57
2018-05-12T19:59:21.944Z,19.47
2018-05-12T20:01:50.273Z,19.28
2018-05-12T20:04:18.549Z,19.02
2018-05-12T20:06:46.826Z,18.88
2018-05-12T20:09:15.089Z,18.46
2018-05-12T20:11:43.442Z,18.35
2018-05-12T20:14:11.802Z,18.03
2018-05-12T20:16:40.103Z,18.28
2018-05-12T20:19:08.494Z,18.41
2018-05-12T20:21:36.765Z,18.47
2018-05-12T20:24:05.106Z,18.51
2018-05-12T20:26:33.523Z,18.52
2018-05-12T20:29:01.987Z,18.52
2018-05-12T20:31:30.330Z,18.48
2018-05-12T20:33:59.545Z,18.52
2018-05-12T20:36:27.849Z,18.46
2018-05-12T20:38:56.221Z,18.47
2018-05-12T20:41:24.585Z,18.44
2018-05-12T20:43:52.864Z,18.37
2018-05-12T20:46:21.233Z,18.02
2018-05-12T20:48:49.571Z,18.07
2018-05-12T20:51:17.898Z,18.06
2018-05-12T20:53:46.258Z,17.99
2018-05-12T20:56:14.694Z,18.05
2018-05-12T20:58:43.005Z,18.08
2018-05-12T21:01:12.099Z,17.98
2018-05-12T21:03:41.177Z,18.02
2018-05-12T21:06:09.432Z,18.00
2018-05-12T21:08:37.725Z,17.90
2018-05-12T21:11:05.997Z,17.76
2018-05-12T21:13:34.329Z,17.80
2018-05-12T21:16:02.620Z,17.74
2018-05-12T21:18:30.892Z,17.80
2018-05-12T21:20:59.176Z,17.83
2018-05-12T21:23:27.457Z,17.93
2018-05-12T21:25:55.734Z,17.70
2018-05-12T21:28:24.085Z,17.80
2018-05-12T21:30:53.321Z,17.90
2018-05-12T21:33:21.666Z,17.98
2018-05-12T21:35:49.928Z,17.81
2018-05-12T21:38:18.177Z,17.90
2018-05-12T21:40:46.495Z,17.64
2018-05-12T21:43:14.743Z,17.78
2018-05-12T21:45:43.761Z,17.77
2018-05-12T21:48:12.049Z,17.67
2018-05-12T21:50:40.303Z,17.68
2018-05-12T21:53:09.411Z,17.67
2018-05-12T21:55:37.680Z,17.79
2018-05-12T21:58:05.946Z,17.67
2018-05-12T22:00:35.062Z,17.50
2018-05-12T22:03:03.332Z,17.69
2018-05-12T22:05:31.590Z,17.81
2018-05-12T22:08:00.813Z,17.85
2018-05-12T22:10:29.087Z,17.91
2018-05-12T22:12:57.361Z,17.92
2018-05-12T22:15:25.625Z,17.86
2018-05-12T22:17:54.652Z,17.79
2018-05-12T22:20:23.010Z,17.77
2018-05-12T22:22:51.281Z,17.75
2018-05-12T22:25:19.557Z,17.69
2018-05-12T22:27:47.837Z,17.67
2018-05-12T22:30:16.123Z,17.60
2018-05-12T22:32:44.377Z,17.54
2018-05-12T22:35:13.401Z,17.48
2018-05-12T22:37:41.657Z,17.39
2018-05-12T22:40:09.966Z,17.34
2018-05-12T22:42:38.219Z,17.28
2018-05-12T22:45:06.496Z,17.16
2018-05-12T22:47:34.768Z,17.10
2018-05-12T22:50:03.048Z,16.98
2018-05-12T22:52:31.326Z,16.55
2018-05-12T22:54:59.588Z,16.58
2018-05-12T22:57:27.832Z,16.42
2018-05-12T22:59:56.086Z,16.51
2018-05-12T23:02:24.437Z,16.53
2018-05-12T23:04:52.701Z,16.43
2018-05-12T23:07:20.949Z,16.37
2018-05-12T23:09:49.984Z,16.22
2018-05-12T23:12:18.360Z,16.02
2018-05-12T23:14:46.600Z,16.13
2018-05-12T23:17:15.716Z,16.08
2018-05-12T23:19:43.976Z,15.93
2018-05-12T23:22:12.998Z,15.91
2018-05-12T23:24:41.272Z,15.83
2018-05-12T23:27:09.545Z,15.91
2018-05-12T23:29:37.802Z,15.88
2018-05-12T23:32:06.841Z,15.91
2018-05-12T23:34:35.200Z,15.83
2018-05-12T23:37:03.457Z,15.85
2018-05-12T23:39:32.163Z,15.66
2018-05-12T23:42:00.412Z,15.52
2018-05-12T23:44:29.428Z,15.45
2018-05-12T23:46:57.687Z,15.41
2018-05-12T23:49:25.988Z,15.18
2018-05-12T23:51:54.237Z,15.17
2018-05-12T23:54:23.278Z,15.22
2018-05-12T23:56:51.622Z,15.17
2018-05-12T23:59:19.877Z,15.11
